createdAt,value
2023-01-29T00:02:28.037Z,14.00
2023-01-29T00:04:59.072Z,14.60
2023-01-29T00:07:27.335Z,15.20
2023-01-29T00:09:55.963Z,14.80
2023-01-29T00:12:23.920Z,15.30
2023-01-29T00:14:55.077Z,14.40
2023-01-29T00:17:23.502Z,14.50
2023-01-29T00:19:51.486Z,16.30
2023-01-29T00:22:19.494Z,15.70
2023-01-29T00:24:47.626Z,15.30
2023-01-29T00:27:15.659Z,14.10
2023-01-29T00:29:43.746Z,15.40
2023-01-29T00:32:11.805Z,17.10
2023-01-29T00:34:40.200Z,15.30
2023-01-29T00:37:09.008Z,16.30
2023-01-29T00:39:47.850Z,15.30
2023-01-29T00:42:36.908Z,15.10
2023-01-29T00:45:05.890Z,14.40
2023-01-29T00:47:34.067Z,15.20
2023-01-29T00:50:07.446Z,13.40
2023-01-29T00:52:36.711Z,11.30
2023-01-29T00:55:05.444Z,14.30
2023-01-29T00:57:34.664Z,13.40
2023-01-29T01:00:04.025Z,16.90
2023-01-29T01:02:50.646Z,17.40
2023-01-29T01:05:19.274Z,16.40
2023-01-29T04:21:38.109Z,19.20
2023-01-29T04:24:06.834Z,18.30
2023-01-29T04:26:59.880Z,18.70
2023-01-29T04:29:40.366Z,22.10
2023-01-29T04:32:34.116Z,22.00
2023-01-29T04:35:23.335Z,21.00
2023-01-29T04:38:04.717Z,19.70
2023-01-29T04:40:51.967Z,19.90
2023-01-29T04:43:25.190Z,20.00
2023-01-29T04:46:12.290Z,24.40
2023-01-29T04:48:57.276Z,22.60
2023-01-29T04:51:50.995Z,24.70
2023-01-29T04:54:33.851Z,25.10
2023-01-29T04:57:18.709Z,23.40
2023-01-29T04:59:47.906Z,23.80
2023-01-29T05:02:14.540Z,22.00
2023-01-29T05:04:41.380Z,21.20
2023-01-29T05:07:10.845Z,22.60
2023-01-29T05:09:39.140Z,22.10
2023-01-29T05:12:06.850Z,22.00
2023-01-29T05:14:33.558Z,20.60
2023-01-29T05:17:02.791Z,21.60
2023-01-29T05:19:29.393Z,20.50
2023-01-29T05:21:56.137Z,22.90
2023-01-29T05:24:23.976Z,23.10
2023-01-29T05:27:11.700Z,22.10
2023-01-29T05:29:44.874Z,20.70
2023-01-29T05:32:11.838Z,22.60
2023-01-29T05:34:43.008Z,18.70
2023-01-29T05:37:09.794Z,16.30
2023-01-29T05:39:36.350Z,18.90
2023-01-29T05:42:03.653Z,20.60
2023-01-29T05:44:32.695Z,23.90
2023-01-29T05:47:01.951Z,20.60
2023-01-29T05:49:28.829Z,19.90
2023-01-29T05:51:55.469Z,19.30
2023-01-29T05:54:22.620Z,19.50
2023-01-29T05:56:49.241Z,19.80
2023-01-29T05:59:15.922Z,21.60
2023-01-29T06:01:42.799Z,22.00
2023-01-29T06:04:09.481Z,19.70
2023-01-29T06:06:35.959Z,20.20
2023-01-29T06:09:02.811Z,20.50
2023-01-29T06:11:29.467Z,18.80
2023-01-29T06:13:55.993Z,20.80
2023-01-29T06:16:22.618Z,19.70
2023-01-29T06:18:49.183Z,20.40
2023-01-29T06:21:16.248Z,21.50
2023-01-29T06:23:43.268Z,20.60
2023-01-29T06:26:11.692Z,19.60
2023-01-29T06:28:38.586Z,20.50
2023-01-29T06:33:52.802Z,22.60
2023-01-29T06:36:19.398Z,21.60
2023-01-29T06:38:46.716Z,22.80
2023-01-29T06:41:17.277Z,28.50
2023-01-29T06:43:44.891Z,28.70
2023-01-29T06:46:11.548Z,25.20
2023-01-29T06:48:38.830Z,29.20
2023-01-29T06:51:06.417Z,27.50
2023-01-29T06:53:33.342Z,28.00
2023-01-29T06:55:59.918Z,30.00
2023-01-29T06:58:26.553Z,27.70
2023-01-29T07:00:53.152Z,27.00
2023-01-29T07:03:19.819Z,25.00
2023-01-29T07:05:53.232Z,24.50
2023-01-29T07:08:22.038Z,22.60
2023-01-29T07:10:49.541Z,26.00
2023-01-29T07:13:16.204Z,25.50
2023-01-29T07:15:43.912Z,23.40
2023-01-29T07:18:12.147Z,22.40
2023-01-29T07:20:39.723Z,24.40
2023-01-29T07:23:06.486Z,26.20
2023-01-29T07:25:33.673Z,24.30
2023-01-29T07:28:01.214Z,25.10
2023-01-29T07:30:27.926Z,26.90
2023-01-29T07:32:55.137Z,25.40
2023-01-29T07:35:21.820Z,27.20
2023-01-29T07:37:49.481Z,27.40
2023-01-29T07:40:16.956Z,29.70
2023-01-29T07:42:44.932Z,29.70
2023-01-29T07:45:11.537Z,29.70
2023-01-29T07:47:38.173Z,33.60
2023-01-29T07:50:05.412Z,29.20
2023-01-29T07:52:32.908Z,29.00
2023-01-29T07:54:59.410Z,31.20
2023-01-29T07:57:26.074Z,30.60
2023-01-29T07:59:52.681Z,31.80
2023-01-29T08:02:19.225Z,30.80
2023-01-29T08:04:46.801Z,31.20
2023-01-29T08:07:13.728Z,29.10
2023-01-29T08:09:40.248Z,27.80
2023-01-29T08:12:06.859Z,31.40
2023-01-29T08:14:33.680Z,29.50
2023-01-29T08:17:00.267Z,26.90
2023-01-29T08:19:26.856Z,28.40
2023-01-29T08:21:53.628Z,30.60
2023-01-29T08:24:20.350Z,28.60
2023-01-29T08:26:47.082Z,27.00
2023-01-29T08:29:13.822Z,26.50
2023-01-29T08:32:00.240Z,30.10
2023-01-29T08:34:26.971Z,26.50
2023-01-29T08:36:53.689Z,26.20
2023-01-29T08:39:20.314Z,24.80
2023-01-29T08:41:48.487Z,23.60
2023-01-29T08:44:15.280Z,25.90
2023-01-29T08:46:41.796Z,22.60
2023-01-29T08:49:08.714Z,26.20
2023-01-29T08:51:35.841Z,25.20
2023-01-29T08:54:03.706Z,22.20
2023-01-29T08:56:31.247Z,24.30
2023-01-29T08:58:59.039Z,24.70
2023-01-29T09:01:25.912Z,24.10
2023-01-29T09:03:52.744Z,23.10
2023-01-29T09:06:19.560Z,21.90
2023-01-29T09:08:52.956Z,25.30
2023-01-29T09:11:22.690Z,21.70
2023-01-29T09:13:49.451Z,24.80
2023-01-29T09:16:16.016Z,21.40
2023-01-29T09:18:42.737Z,22.20
2023-01-29T09:21:09.612Z,21.40
2023-01-29T09:23:36.100Z,20.90
2023-01-29T09:26:02.754Z,21.90
2023-01-29T09:28:29.594Z,21.20
2023-01-29T09:30:56.244Z,20.80
2023-01-29T09:33:24.188Z,19.70
2023-01-29T09:35:50.677Z,22.30
2023-01-29T09:38:17.391Z,22.30
2023-01-29T09:40:52.413Z,20.80
2023-01-29T09:43:43.389Z,21.90
2023-01-29T09:46:20.466Z,22.20
2023-01-29T09:48:47.707Z,22.00
2023-01-29T09:51:41.238Z,21.30
2023-01-29T09:54:29.046Z,20.40
2023-01-29T09:56:56.431Z,21.20
2023-01-29T09:59:24.523Z,22.20
2023-01-29T10:02:10.820Z,21.10
2023-01-29T10:31:39.755Z,17.50
2023-01-29T10:34:14.110Z,21.40
2023-01-29T10:36:46.605Z,18.00
2023-01-29T10:39:19.580Z,16.70
2023-01-29T10:42:26.420Z,15.80
2023-01-29T10:45:22.440Z,14.80
2023-01-29T10:48:18.129Z,18.10
2023-01-29T10:50:55.364Z,16.50
2023-01-29T10:53:32.300Z,16.70
2023-01-29T10:56:20.987Z,15.80
2023-01-29T10:58:55.906Z,18.20
2023-01-29T11:01:23.834Z,15.80
2023-01-29T11:04:02.865Z,17.60
2023-01-29T11:06:34.939Z,17.00
2023-01-29T11:09:13.377Z,13.30
2023-01-29T11:11:48.676Z,13.70
2023-01-29T11:14:31.424Z,14.30
2023-01-29T11:16:59.895Z,14.20
2023-01-29T11:19:41.915Z,14.00
2023-01-29T11:22:16.617Z,16.80
2023-01-29T11:24:44.657Z,16.10
2023-01-29T11:27:23.258Z,17.20
2023-01-29T11:29:51.438Z,18.40
2023-01-29T11:32:19.250Z,16.90
2023-01-29T11:35:03.007Z,16.80
2023-01-29T11:37:35.796Z,16.60
2023-01-29T11:40:19.373Z,15.50
2023-01-29T11:42:47.406Z,12.40
2023-01-29T11:45:25.741Z,13.40
2023-01-29T11:47:55.192Z,15.00
2023-01-29T11:50:26.004Z,13.60
2023-01-29T11:52:54.058Z,14.90
2023-01-29T11:55:23.603Z,15.80
2023-01-29T11:57:54.200Z,14.70
2023-01-29T12:00:27.261Z,16.00
2023-01-29T12:03:20.461Z,13.70
2023-01-29T12:05:59.845Z,14.00
2023-01-29T12:08:32.195Z,13.20
2023-01-29T12:11:11.073Z,14.40
2023-01-29T12:13:41.720Z,14.20
2023-01-29T12:16:23.620Z,17.50
2023-01-29T12:19:01.128Z,14.50
2023-01-29T12:21:45.540Z,18.80
2023-01-29T12:24:29.605Z,15.40
2023-01-29T12:29:46.342Z,13.30
2023-01-29T12:32:32.717Z,12.10
2023-01-29T12:35:33.054Z,13.30
2023-01-29T12:38:08.667Z,12.50
2023-01-29T12:40:44.315Z,13.60
2023-01-29T12:43:16.653Z,13.00
2023-01-29T12:45:48.391Z,14.00
2023-01-29T12:48:21.250Z,13.90
2023-01-29T12:50:49.162Z,14.30
2023-01-29T12:53:34.624Z,15.90
2023-01-29T12:56:29.882Z,17.10
2023-01-29T12:58:58.198Z,17.70
2023-01-29T13:01:31.405Z,16.30
2023-01-29T13:04:03.801Z,18.50
2023-01-29T13:06:35.609Z,18.80
2023-01-29T13:09:05.355Z,18.10
2023-01-29T13:11:36.905Z,16.80
2023-01-29T13:14:14.493Z,18.20
2023-01-29T13:16:44.878Z,20.70
2023-01-29T13:19:24.015Z,14.90
2023-01-29T13:21:52.602Z,17.20
2023-01-29T13:24:23.316Z,16.30
2023-01-29T13:26:51.576Z,15.20
2023-01-29T13:31:23.627Z,15.00
2023-01-29T13:34:03.961Z,15.80
2023-01-29T13:36:35.099Z,15.60
2023-01-29T13:39:07.696Z,15.30
2023-01-29T13:41:38.002Z,18.80
2023-01-29T13:44:07.497Z,19.90
2023-01-29T13:46:40.068Z,19.20
2023-01-29T13:49:22.278Z,20.30
2023-01-29T13:51:50.425Z,17.80
2023-01-29T13:54:21.331Z,21.40
2023-01-29T13:56:55.024Z,22.50
2023-01-29T13:59:24.827Z,19.50
2023-01-29T14:01:52.919Z,16.50
2023-01-29T14:04:29.745Z,20.80
2023-01-29T14:06:58.804Z,16.80
2023-01-29T14:09:39.166Z,18.20
2023-01-29T14:12:33.475Z,16.20
2023-01-29T14:15:05.652Z,16.30
2023-01-29T14:17:34.570Z,20.50
2023-01-29T14:20:04.596Z,19.70
2023-01-29T14:22:34.728Z,21.30
2023-01-29T14:25:04.747Z,16.20
2023-01-29T14:27:32.987Z,17.00
2023-01-29T14:30:02.670Z,17.40
2023-01-29T14:32:30.900Z,17.70
2023-01-29T14:35:17.560Z,24.10
2023-01-29T14:37:52.880Z,23.70
2023-01-29T14:40:25.109Z,22.40
2023-01-29T14:43:06.352Z,21.30
2023-01-29T14:45:38.564Z,21.70
2023-01-29T14:48:10.333Z,23.20
2023-01-29T14:50:51.522Z,23.40
2023-01-29T14:53:27.886Z,21.50
2023-01-29T14:56:03.023Z,18.50
2023-01-29T14:58:39.456Z,20.10
2023-01-29T15:01:17.973Z,22.20
2023-01-29T15:03:58.582Z,23.70
2023-01-29T15:06:36.263Z,26.60
2023-01-29T15:09:12.778Z,24.30
2023-01-29T15:12:08.012Z,25.60
2023-01-29T15:14:43.474Z,26.30
2023-01-29T15:17:18.209Z,25.10
2023-01-29T15:19:50.819Z,25.70
2023-01-29T15:22:22.201Z,24.00
2023-01-29T15:25:07.996Z,26.70
2023-01-29T15:27:35.963Z,31.40
2023-01-29T15:30:05.324Z,20.80
2023-01-29T15:32:35.500Z,23.00
2023-01-29T15:35:11.526Z,22.50
2023-01-29T15:37:39.728Z,22.80
2023-01-29T15:40:14.359Z,22.90
2023-01-29T15:42:46.731Z,19.40
2023-01-29T15:45:31.507Z,22.70
2023-01-29T15:48:08.079Z,22.50
2023-01-29T15:50:40.973Z,23.10
2023-01-29T15:53:31.580Z,23.50
2023-01-29T15:56:00.351Z,21.90
2023-01-29T15:58:31.053Z,22.10
2023-01-29T16:00:59.868Z,22.00
2023-01-29T16:03:28.714Z,23.80
2023-01-29T16:05:58.391Z,23.80
2023-01-29T16:08:26.815Z,21.60
2023-01-29T16:10:59.335Z,22.80
2023-01-29T16:13:29.263Z,21.70
2023-01-29T16:16:08.381Z,20.80
2023-01-29T16:18:39.526Z,21.00
2023-01-29T16:21:10.346Z,21.00
2023-01-29T16:23:59.036Z,24.60
2023-01-29T16:26:35.263Z,23.10
2023-01-29T16:29:07.901Z,21.50
2023-01-29T16:31:35.998Z,19.80
2023-01-29T16:34:15.108Z,18.10
2023-01-29T16:36:46.640Z,17.60
2023-01-29T16:39:18.845Z,17.20
2023-01-29T16:41:46.725Z,16.60
2023-01-29T16:44:21.060Z,16.50
2023-01-29T16:46:51.220Z,17.40
2023-01-29T16:49:26.195Z,15.10
2023-01-29T16:51:54.728Z,13.70
2023-01-29T16:54:26.203Z,14.60
2023-01-29T16:56:59.897Z,13.00
2023-01-29T16:59:35.618Z,11.10
2023-01-29T17:02:04.008Z,9.90
2023-01-29T17:04:31.851Z,11.50
2023-01-29T17:07:00.943Z,13.50
2023-01-29T17:09:35.612Z,11.60
2023-01-29T17:12:05.686Z,9.90
2023-01-29T17:14:34.494Z,9.60
2023-01-29T17:17:04.710Z,10.50
2023-01-29T17:19:33.923Z,10.30
2023-01-29T17:22:05.589Z,9.50
2023-01-29T17:24:33.933Z,10.00
2023-01-29T17:27:01.810Z,9.90
2023-01-29T17:29:30.720Z,11.60
2023-01-29T17:32:00.261Z,12.20
2023-01-29T17:34:28.780Z,10.80
2023-01-29T17:36:57.381Z,13.00
2023-01-29T17:39:25.812Z,12.50
2023-01-29T17:41:55.162Z,11.70
2023-01-29T17:44:23.549Z,11.50
2023-01-29T17:46:51.863Z,11.80
2023-01-29T17:49:29.942Z,9.80
2023-01-29T17:51:58.054Z,10.70
2023-01-29T17:54:26.463Z,10.80
2023-01-29T17:56:54.542Z,12.50
2023-01-29T17:59:28.819Z,11.90
2023-01-29T18:01:56.769Z,11.00
2023-01-29T18:04:24.897Z,13.70
2023-01-29T18:06:52.946Z,13.90
2023-01-29T18:09:21.403Z,10.80
2023-01-29T18:11:53.408Z,13.80
2023-01-29T18:14:21.412Z,12.50
2023-01-29T18:16:49.543Z,13.40
2023-01-29T18:19:27.621Z,14.40
2023-01-29T18:21:56.089Z,14.50
2023-01-29T18:24:26.739Z,14.60
2023-01-29T18:26:54.835Z,11.70
2023-01-29T18:29:22.915Z,12.90
2023-01-29T18:31:50.940Z,11.80
2023-01-29T18:34:18.933Z,12.60
2023-01-29T18:36:48.029Z,12.60
2023-01-29T18:39:16.497Z,10.80
2023-01-29T18:41:44.682Z,11.90
2023-01-29T18:44:12.725Z,12.40
2023-01-29T18:46:41.147Z,11.50
2023-01-29T18:49:09.139Z,10.50
2023-01-29T18:51:37.791Z,9.40
2023-01-29T18:54:05.978Z,8.60
2023-01-29T18:56:34.549Z,8.70
2023-01-29T18:59:03.856Z,11.10
2023-01-29T19:01:34.209Z,10.10
2023-01-29T19:04:02.242Z,10.00
2023-01-29T19:06:30.891Z,10.10
2023-01-29T21:11:32.957Z,7.70
2023-01-29T21:14:01.133Z,9.20
2023-01-29T21:16:27.928Z,8.30
2023-01-29T21:18:56.270Z,8.80
2023-01-29T21:21:23.206Z,8.80
2023-01-29T21:23:50.369Z,8.60
2023-01-29T21:26:18.136Z,7.50
2023-01-29T21:28:45.401Z,8.50
2023-01-29T21:31:13.870Z,5.40
2023-01-29T21:33:40.346Z,18.60
2023-01-29T21:36:07.876Z,7.70
2023-01-29T21:38:35.301Z,7.60
2023-01-29T21:41:04.133Z,6.50
2023-01-29T21:43:30.801Z,6.90
2023-01-29T21:45:58.824Z,6.90
2023-01-29T21:48:25.999Z,5.40
2023-01-29T21:50:53.097Z,37.90
2023-01-29T21:53:19.942Z,9.70
2023-01-29T21:55:46.460Z,8.00
2023-01-29T21:58:14.532Z,7.70
2023-01-29T22:00:41.307Z,7.20
2023-01-29T22:03:09.220Z,8.10
2023-01-29T22:05:36.397Z,6.40
2023-01-29T22:08:04.236Z,6.90
2023-01-29T22:10:33.331Z,35.80
2023-01-29T22:13:01.459Z,42.50
2023-01-29T22:15:28.937Z,6.30
2023-01-29T22:17:56.111Z,5.90
2023-01-29T22:20:29.452Z,5.50
2023-01-29T22:22:58.230Z,28.20
2023-01-29T22:25:24.895Z,5.70
2023-01-29T22:27:51.969Z,13.40
2023-01-29T22:30:18.925Z,22.30
2023-01-29T22:32:46.138Z,33.90
2023-01-29T22:35:12.721Z,58.60
2023-01-29T22:37:39.843Z,58.40
2023-01-29T22:40:07.187Z,57.20
2023-01-29T22:42:33.815Z,57.40
2023-01-29T22:45:00.958Z,54.40
2023-01-29T22:47:31.970Z,55.60
2023-01-29T22:52:27.891Z,5.10
2023-01-29T22:54:55.825Z,5.30
2023-01-29T22:57:24.384Z,7.30
2023-01-29T22:59:52.510Z,7.20
2023-01-29T23:02:20.563Z,6.90
2023-01-29T23:04:48.652Z,7.90
2023-01-29T23:07:16.650Z,7.30
2023-01-29T23:09:44.607Z,7.30
2023-01-29T23:12:13.874Z,7.80
2023-01-29T23:14:44.919Z,6.50
2023-01-29T23:17:12.910Z,7.20
2023-01-29T23:19:40.841Z,5.60
2023-01-29T23:22:08.854Z,6.70
2023-01-29T23:24:36.862Z,6.10
2023-01-29T23:27:17.030Z,6.00
2023-01-29T23:29:46.305Z,6.90
2023-01-29T23:32:16.679Z,6.80
2023-01-29T23:34:45.221Z,6.50
2023-01-29T23:37:13.330Z,7.10
2023-01-29T23:39:41.772Z,6.50
2023-01-29T23:42:09.909Z,7.30
2023-01-29T23:44:37.873Z,7.10
2023-01-29T23:47:06.463Z,20.80
2023-01-29T23:49:34.519Z,34.80
2023-01-29T23:54:45.535Z,5.30
2023-01-29T23:57:13.585Z,7.40
2023-01-29T23:59:42.241Z,5.80
